Time;durP1;ratioP1;P1;durP2;ratioP2;P2;SDS_P1;SDS_P2;PMS_P1;PMS_P2;Temp;Humidity;BMP_temperature;BMP_pressure;BME280_temperature;BME280_humidity;BME280_pressure;Samples;Min_cycle;Max_cycle;Signal;HPM_P1;HPM_P2
2024/03/25 00:00:11;;;;;;;;;;;;;;;21.36;34.42;99559.88;102702;1292;62192;-79
2024/03/25 00:02:37;;;;;;;;;;;;;;;21.36;34.34;99556.31;102743;1291;63410;-79
2024/03/25 00:05:05;;;;;;;;;;;;;;;21.36;34.40;99560.78;102653;1292;63485;-79
2024/03/25 00:07:31;;;;;;;;;;;;;;;21.35;34.42;99559.40;102755;1295;62211;-81
2024/03/25 00:09:58;;;;;;;;;;;;;;;21.35;34.48;99560.83;102876;1291;62223;-79
2024/03/25 00:12:25;;;;;;;;;;;;;;;21.35;34.35;99560.35;102640;1295;62213;-80
2024/03/25 00:14:51;;;;;;;;;;;;;;;21.35;34.38;99557.30;102683;1294;62134;-79
2024/03/25 00:17:16;;;;;;;;;;;;;;;21.35;34.48;99557.61;102710;1297;62277;-79
2024/03/25 00:19:42;;;;;;;;;;;;;;;21.35;34.39;99559.27;102698;1291;62219;-80
2024/03/25 00:22:07;;;;;;;;;;;;;;;21.34;34.45;99553.25;102683;1291;63257;-81
2024/03/25 00:24:33;;;;;;;;;;;;;;;21.34;34.41;99544.27;102706;1291;62287;-79
2024/03/25 00:26:58;;;;;;;;;;;;;;;21.33;34.44;99536.48;102670;1294;72425;-80
2024/03/25 00:29:24;;;;;;;;;;;;;;;21.33;34.54;99529.67;102685;1294;63372;-78
2024/03/25 00:31:49;;;;;;;;;;;;;;;21.33;34.36;99530.93;102698;1292;63275;-81
2024/03/25 00:34:15;;;;;;;;;;;;;;;21.33;34.48;99530.06;102724;1291;63353;-79
2024/03/25 00:36:41;;;;;;;;;;;;;;;21.33;34.46;99524.19;102741;1291;63386;-79
2024/03/25 00:39:07;;;;;;;;;;;;;;;21.33;34.52;99516.50;102634;1295;72553;-80
2024/03/25 00:41:33;;;;;;;;;;;;;;;21.33;34.41;99514.36;102700;1296;62179;-79
2024/03/25 00:43:58;;;;;;;;;;;;;;;21.32;34.50;99505.26;102707;1294;63914;-79
2024/03/25 00:46:24;;;;;;;;;;;;;;;21.33;34.38;99505.06;102671;1292;62165;-79
2024/03/25 00:48:49;;;;;;;;;;;;;;;21.32;34.36;99503.16;102842;1297;62274;-80
2024/03/25 00:51:15;;;;;;;;;;;;;;;21.32;34.52;99504.78;102643;1291;63932;-80
2024/03/25 00:53:42;;;;;;;;;;;;;;;21.32;34.44;99506.42;102702;1291;76286;-81
2024/03/25 00:56:08;;;;;;;;;;;;;;;21.31;34.41;99513.40;102723;1291;62150;-79
2024/03/25 00:58:34;;;;;;;;;;;;;;;21.31;34.55;99514.67;102706;1291;62188;-79
2024/03/25 01:00:59;;;;;;;;;;;;;;;21.31;34.51;99521.34;102692;1292;63450;-77
2024/03/25 01:03:25;;;;;;;;;;;;;;;21.30;34.54;99526.73;102779;1294;62216;-79
2024/03/25 01:05:50;;;;;;;;;;;;;;;21.30;34.57;99514.41;102812;1291;62248;-80
2024/03/25 01:08:16;;;;;;;;;;;;;;;21.30;34.48;99495.67;102670;1291;62147;-80
2024/03/25 01:10:42;;;;;;;;;;;;;;;21.30;34.45;99480.98;102678;1293;62300;-78
2024/03/25 01:13:07;;;;;;;;;;;;;;;21.29;34.48;99478.52;102718;1291;62435;-81
2024/03/25 01:15:33;;;;;;;;;;;;;;;21.29;34.52;99485.00;102702;1291;62184;-80
2024/03/25 01:17:58;;;;;;;;;;;;;;;21.29;34.49;99490.91;102695;1295;62207;-79
2024/03/25 01:20:24;;;;;;;;;;;;;;;21.28;34.58;99496.70;102504;1292;62220;-79
2024/03/25 01:22:50;;;;;;;;;;;;;;;21.28;34.63;99497.94;102734;1291;62197;-79
2024/03/25 01:25:15;;;;;;;;;;;;;;;21.28;34.43;99501.16;102738;1294;62207;-79
2024/03/25 01:27:41;;;;;;;;;;;;;;;21.27;34.52;99495.33;102683;1292;63455;-79
2024/03/25 01:30:07;;;;;;;;;;;;;;;21.27;34.60;99504.09;102698;1292;62194;-81
2024/03/25 01:32:33;;;;;;;;;;;;;;;21.27;34.58;99514.12;102741;1291;62166;-79
2024/03/25 01:34:58;;;;;;;;;;;;;;;21.26;34.68;99519.39;102732;1291;62225;-80
2024/03/25 01:37:24;;;;;;;;;;;;;;;21.26;34.52;99506.69;102612;1292;63439;-79
2024/03/25 01:39:50;;;;;;;;;;;;;;;21.26;34.59;99488.78;102693;1294;62203;-79
2024/03/25 01:42:15;;;;;;;;;;;;;;;21.26;34.47;99485.42;102689;1291;62197;-79
2024/03/25 01:44:41;;;;;;;;;;;;;;;21.25;34.59;99487.25;102727;1294;63501;-80
2024/03/25 01:47:06;;;;;;;;;;;;;;;21.25;34.59;99488.16;102632;1291;63413;-80
2024/03/25 01:49:32;;;;;;;;;;;;;;;21.25;34.69;99495.02;102862;1291;62193;-80
2024/03/25 01:51:57;;;;;;;;;;;;;;;21.25;34.49;99491.25;102674;1294;62182;-80
2024/03/25 01:54:23;;;;;;;;;;;;;;;21.25;34.57;99485.88;102706;1291;62280;-78
2024/03/25 01:56:49;;;;;;;;;;;;;;;21.25;34.42;99476.62;102776;1294;62184;-79
2024/03/25 01:59:16;;;;;;;;;;;;;;;21.24;34.52;99467.15;102726;1292;62179;-80
2024/03/25 02:01:42;;;;;;;;;;;;;;;21.24;34.61;99454.30;102751;1294;72491;-79
2024/03/25 02:04:08;;;;;;;;;;;;;;;21.24;34.53;99442.15;102695;1295;62789;-79
2024/03/25 02:06:33;;;;;;;;;;;;;;;21.23;34.60;99431.80;102746;1292;63356;-80
2024/03/25 02:08:59;;;;;;;;;;;;;;;21.23;34.61;99423.44;102710;1294;62214;-81
2024/03/25 02:11:25;;;;;;;;;;;;;;;21.23;34.47;99423.45;102726;1292;62211;-80
2024/03/25 02:13:50;;;;;;;;;;;;;;;21.22;34.48;99417.60;102767;1294;62286;-81
2024/03/25 02:16:16;;;;;;;;;;;;;;;21.22;34.47;99413.87;102708;1292;75269;-80
2024/03/25 02:18:41;;;;;;;;;;;;;;;21.21;34.56;99410.53;102748;1294;63480;-79
2024/03/25 02:21:07;;;;;;;;;;;;;;;21.22;34.50;99417.13;102707;1292;62608;-80
2024/03/25 02:23:34;;;;;;;;;;;;;;;21.22;34.60;99417.66;102318;1291;675569;-79
2024/03/25 02:26:00;;;;;;;;;;;;;;;21.21;34.54;99421.85;102721;1291;63498;-79
2024/03/25 02:28:26;;;;;;;;;;;;;;;21.21;34.53;99432.41;102713;1291;63452;-81
2024/03/25 02:30:52;;;;;;;;;;;;;;;21.21;34.56;99432.40;102683;1291;62289;-78
2024/03/25 02:33:18;;;;;;;;;;;;;;;21.20;34.62;99437.62;102745;1292;63375;-79
2024/03/25 02:35:43;;;;;;;;;;;;;;;21.20;34.58;99440.68;102720;1291;63434;-78
2024/03/25 02:38:09;;;;;;;;;;;;;;;21.20;34.57;99452.52;102481;1291;63550;-79
2024/03/25 02:40:35;;;;;;;;;;;;;;;21.20;34.49;99457.89;102667;1292;62291;-79
2024/03/25 02:43:00;;;;;;;;;;;;;;;21.20;34.66;99468.31;102701;1290;63430;-80
2024/03/25 02:45:26;;;;;;;;;;;;;;;21.20;34.68;99482.42;102750;1291;63384;-80
2024/03/25 02:47:51;;;;;;;;;;;;;;;21.20;34.58;99491.56;102723;1294;63256;-79
2024/03/25 02:50:17;;;;;;;;;;;;;;;21.19;34.62;99498.23;102752;1294;62150;-79
2024/03/25 02:52:43;;;;;;;;;;;;;;;21.19;34.58;99511.48;102694;1290;62207;-79
2024/03/25 02:55:08;;;;;;;;;;;;;;;21.19;34.49;99522.58;102743;1292;62188;-80
2024/03/25 02:57:34;;;;;;;;;;;;;;;21.19;34.63;99523.96;102738;1294;63260;-80
2024/03/25 03:00:00;;;;;;;;;;;;;;;21.18;34.43;99524.41;102651;1290;73638;-79
2024/03/25 03:02:26;;;;;;;;;;;;;;;21.18;34.45;99525.71;102663;1294;62193;-79
2024/03/25 03:04:52;;;;;;;;;;;;;;;21.18;34.52;99525.16;102622;1291;62221;-80
2024/03/25 03:07:17;;;;;;;;;;;;;;;21.18;34.50;99543.56;102748;1291;63302;-77
2024/03/25 03:09:43;;;;;;;;;;;;;;;21.18;34.48;99550.55;102733;1292;70117;-79
2024/03/25 03:12:08;;;;;;;;;;;;;;;21.18;34.52;99552.74;102784;1292;62286;-79
2024/03/25 03:14:34;;;;;;;;;;;;;;;21.18;34.52;99554.56;102747;1291;63369;-80
2024/03/25 03:17:04;;;;;;;;;;;;;;;21.17;34.39;99555.48;102628;1296;62124;-80
2024/03/25 03:19:30;;;;;;;;;;;;;;;21.18;34.45;99561.38;102664;1291;62249;-82
2024/03/25 03:21:55;;;;;;;;;;;;;;;21.18;34.48;99566.37;102703;1296;63389;-80
2024/03/25 03:24:21;;;;;;;;;;;;;;;21.17;34.55;99581.79;102649;1291;62222;-79
2024/03/25 03:26:47;;;;;;;;;;;;;;;21.17;34.59;99588.58;102699;1291;62296;-79
2024/03/25 03:29:12;;;;;;;;;;;;;;;21.17;34.52;99588.07;102908;1294;62180;-80
2024/03/25 03:31:38;;;;;;;;;;;;;;;21.16;34.49;99586.50;102618;1291;62261;-80
2024/03/25 03:34:03;;;;;;;;;;;;;;;21.16;34.52;99573.08;102716;1291;63332;-79
2024/03/25 03:36:29;;;;;;;;;;;;;;;21.16;34.55;99560.80;102701;1292;63246;-79
2024/03/25 03:38:54;;;;;;;;;;;;;;;21.16;34.53;99549.36;102741;1292;62202;-79
2024/03/25 03:41:20;;;;;;;;;;;;;;;21.15;34.46;99532.58;102796;1294;62137;-80
2024/03/25 03:43:46;;;;;;;;;;;;;;;21.15;34.57;99519.17;102646;1292;62183;-79
2024/03/25 03:46:11;;;;;;;;;;;;;;;21.15;34.38;99505.23;102727;1292;62660;-79
2024/03/25 03:48:38;;;;;;;;;;;;;;;21.14;34.46;99491.54;102691;1295;63475;-80
2024/03/25 03:51:06;;;;;;;;;;;;;;;21.14;34.45;99482.21;102735;1291;62518;-79
2024/03/25 03:53:32;;;;;;;;;;;;;;;21.14;34.46;99472.95;102775;1291;62216;-80
2024/03/25 03:55:59;;;;;;;;;;;;;;;21.14;34.49;99473.11;102782;1291;63322;-79
2024/03/25 03:58:25;;;;;;;;;;;;;;;21.13;34.51;99475.52;102791;1291;62605;-81
2024/03/25 04:00:51;;;;;;;;;;;;;;;21.13;34.51;99476.22;102744;1294;62370;-78
2024/03/25 04:03:17;;;;;;;;;;;;;;;21.13;34.40;99479.49;102681;1291;62297;-79
2024/03/25 04:05:42;;;;;;;;;;;;;;;21.13;34.56;99476.61;102701;1292;62657;-79
2024/03/25 04:08:08;;;;;;;;;;;;;;;21.13;34.47;99475.94;102707;1291;62208;-80
2024/03/25 04:10:34;;;;;;;;;;;;;;;21.13;34.52;99483.12;102688;1297;62256;-79
2024/03/25 04:12:59;;;;;;;;;;;;;;;21.13;34.42;99484.89;102610;1291;62087;-79
2024/03/25 04:15:26;;;;;;;;;;;;;;;21.12;34.43;99485.63;102630;1292;62341;-80
2024/03/25 04:17:52;;;;;;;;;;;;;;;21.12;34.45;99491.92;102716;1294;62192;-81
2024/03/25 04:20:17;;;;;;;;;;;;;;;21.11;34.41;99500.73;102639;1292;62281;-79
2024/03/25 04:22:43;;;;;;;;;;;;;;;21.12;34.47;99501.27;102730;1292;63395;-80
2024/03/25 04:25:11;;;;;;;;;;;;;;;21.11;34.49;99503.99;102709;1291;62083;-83
2024/03/25 04:27:38;;;;;;;;;;;;;;;21.11;34.46;99506.31;102683;1294;62123;-80
2024/03/25 04:30:04;;;;;;;;;;;;;;;21.10;34.40;99508.88;102707;1291;62677;-80
2024/03/25 04:32:30;;;;;;;;;;;;;;;21.10;34.51;99514.44;102801;1292;62132;-80
2024/03/25 04:34:56;;;;;;;;;;;;;;;21.10;34.54;99522.48;102715;1291;62180;-79
2024/03/25 04:37:21;;;;;;;;;;;;;;;21.09;34.44;99527.34;102653;1291;63420;-81
2024/03/25 04:39:48;;;;;;;;;;;;;;;21.10;34.52;99535.93;102788;1291;62210;-79
2024/03/25 04:42:13;;;;;;;;;;;;;;;21.09;34.39;99540.45;102803;1292;75097;-79
2024/03/25 04:44:40;;;;;;;;;;;;;;;21.08;34.33;99545.02;102668;1297;62164;-80
2024/03/25 04:47:06;;;;;;;;;;;;;;;21.08;34.37;99550.79;102798;1291;62387;-79
2024/03/25 04:49:31;;;;;;;;;;;;;;;21.07;34.44;99551.39;102693;1291;63487;-80
2024/03/25 04:51:57;;;;;;;;;;;;;;;21.06;34.38;99552.51;102679;1294;62543;-79
2024/03/25 04:54:23;;;;;;;;;;;;;;;21.05;34.42;99560.48;102718;1297;62173;-80
2024/03/25 04:56:48;;;;;;;;;;;;;;;21.04;34.40;99558.77;102772;1290;62171;-80
2024/03/25 04:59:14;;;;;;;;;;;;;;;21.03;34.34;99560.66;102732;1292;63412;-79
2024/03/25 05:01:39;;;;;;;;;;;;;;;21.03;34.39;99565.19;102711;1291;63247;-81
2024/03/25 05:04:09;;;;;;;;;;;;;;;21.02;34.45;99568.30;102770;1291;62200;-79
2024/03/25 05:06:35;;;;;;;;;;;;;;;21.02;34.54;99569.58;102924;1291;62083;-79
2024/03/25 05:09:01;;;;;;;;;;;;;;;21.01;34.43;99569.45;102923;1291;62205;-80
2024/03/25 05:11:27;;;;;;;;;;;;;;;21.00;34.50;99571.14;102945;1291;62301;-79
2024/03/25 05:13:52;;;;;;;;;;;;;;;21.00;34.49;99573.19;102794;1292;63444;-80
2024/03/25 05:16:18;;;;;;;;;;;;;;;20.99;34.39;99577.50;102801;1291;62255;-80
2024/03/25 05:18:43;;;;;;;;;;;;;;;20.99;34.43;99578.06;102916;1291;62195;-79
2024/03/25 05:21:09;;;;;;;;;;;;;;;20.98;34.53;99583.67;102699;1291;62220;-81
2024/03/25 05:23:35;;;;;;;;;;;;;;;20.97;34.51;99591.50;102988;1291;63389;-78
2024/03/25 05:26:00;;;;;;;;;;;;;;;20.95;34.50;99585.91;103134;1292;62210;-81
2024/03/25 05:28:26;;;;;;;;;;;;;;;20.95;34.49;99582.58;102697;1297;62202;-81
2024/03/25 05:30:51;;;;;;;;;;;;;;;20.93;34.49;99592.88;103181;1291;62149;-78
2024/03/25 05:33:17;;;;;;;;;;;;;;;20.92;34.55;99599.94;103229;1292;63520;-80
2024/03/25 05:35:42;;;;;;;;;;;;;;;20.92;34.53;99610.52;103227;1293;62266;-80
2024/03/25 05:38:08;;;;;;;;;;;;;;;20.92;34.52;99606.05;103228;1294;62283;-79
2024/03/25 05:40:34;;;;;;;;;;;;;;;20.91;34.44;99599.84;103610;1291;62094;-79
2024/03/25 05:42:59;;;;;;;;;;;;;;;20.90;34.58;99603.31;103104;1295;62574;-81
2024/03/25 05:45:25;;;;;;;;;;;;;;;20.84;34.46;99611.06;103247;1291;63273;-80
2024/03/25 05:47:51;;;;;;;;;;;;;;;20.81;34.61;99614.02;103318;1291;62183;-80
2024/03/25 05:50:16;;;;;;;;;;;;;;;20.79;34.56;99620.77;103345;1290;62150;-79
2024/03/25 05:52:42;;;;;;;;;;;;;;;20.76;34.62;99628.16;103501;1291;62263;-78
2024/03/25 05:55:09;;;;;;;;;;;;;;;20.75;34.58;99634.19;103440;1292;62301;-79
2024/03/25 05:57:35;;;;;;;;;;;;;;;20.72;34.63;99639.48;103716;1292;62139;-81
2024/03/25 06:00:01;;;;;;;;;;;;;;;20.68;34.71;99646.73;103856;1291;62252;-79
2024/03/25 06:02:27;;;;;;;;;;;;;;;20.66;34.56;99648.91;104152;1291;62198;-79
2024/03/25 06:04:52;;;;;;;;;;;;;;;20.65;34.55;99650.06;104682;1290;61231;-80
2024/03/25 06:07:18;;;;;;;;;;;;;;;20.64;34.66;99651.24;104728;1290;60241;-80
2024/03/25 06:09:44;;;;;;;;;;;;;;;20.64;34.77;99651.78;104840;1291;62293;-81
2024/03/25 06:12:09;;;;;;;;;;;;;;;20.65;34.71;99643.99;104663;1291;60460;-80
2024/03/25 06:14:35;;;;;;;;;;;;;;;20.66;34.83;99634.91;104292;1291;60547;-79
2024/03/25 06:17:00;;;;;;;;;;;;;;;20.69;34.97;99636.66;104561;1291;61963;-80
2024/03/25 06:19:26;;;;;;;;;;;;;;;20.71;34.91;99642.52;104550;1291;62083;-81
2024/03/25 06:21:51;;;;;;;;;;;;;;;20.75;34.88;99642.80;104539;1291;62683;-81
2024/03/25 06:24:17;;;;;;;;;;;;;;;20.78;35.01;99643.58;104074;1291;62121;-79
2024/03/25 06:26:43;;;;;;;;;;;;;;;20.82;34.91;99647.00;104090;1295;62117;-79
2024/03/25 06:29:08;;;;;;;;;;;;;;;20.86;35.12;99654.27;103912;1291;62265;-80
2024/03/25 06:34:18;;;;;;;;;;;;;;;20.93;35.09;99660.84;103715;1291;72538;-80
2024/03/25 06:36:44;;;;;;;;;;;;;;;20.96;35.07;99654.88;103756;1291;62237;-79
2024/03/25 06:39:10;;;;;;;;;;;;;;;20.98;34.96;99652.92;103690;1290;62191;-79
2024/03/25 06:41:35;;;;;;;;;;;;;;;21.00;34.96;99654.51;103718;1291;62178;-78
2024/03/25 06:44:01;;;;;;;;;;;;;;;21.02;35.10;99656.81;103519;1292;59618;-79
2024/03/25 06:46:27;;;;;;;;;;;;;;;21.05;35.20;99662.48;103572;1294;62188;-79
2024/03/25 06:48:53;;;;;;;;;;;;;;;21.07;35.18;99671.27;103621;1292;75125;-80
2024/03/25 06:51:19;;;;;;;;;;;;;;;21.08;35.09;99675.22;103604;1291;62161;-80
2024/03/25 06:53:44;;;;;;;;;;;;;;;21.10;35.19;99673.83;103884;1291;62179;-80
2024/03/25 06:56:11;;;;;;;;;;;;;;;21.13;35.09;99671.30;103613;1291;62114;-80
2024/03/25 06:58:36;;;;;;;;;;;;;;;21.15;35.19;99674.49;103937;1291;62161;-81
2024/03/25 07:01:06;;;;;;;;;;;;;;;21.18;35.48;99678.83;103972;1291;62207;-78
2024/03/25 07:03:33;;;;;;;;;;;;;;;21.21;35.67;99681.12;104185;1291;62178;-78
2024/03/25 07:06:00;;;;;;;;;;;;;;;21.23;35.58;99682.52;104376;1291;62070;-80
2024/03/25 07:08:25;;;;;;;;;;;;;;;21.24;35.76;99681.34;104460;1291;60475;-80
2024/03/25 07:10:51;;;;;;;;;;;;;;;21.26;35.79;99683.65;104302;1290;62078;-79
2024/03/25 07:13:17;;;;;;;;;;;;;;;21.29;35.73;99687.08;104562;1291;61976;-79
2024/03/25 07:15:43;;;;;;;;;;;;;;;21.30;35.86;99692.66;104434;1291;62227;-77
2024/03/25 07:18:10;;;;;;;;;;;;;;;21.31;35.84;99693.08;104578;1291;62168;-78
2024/03/25 07:20:37;;;;;;;;;;;;;;;21.33;35.76;99695.59;104464;1291;72570;-78
2024/03/25 07:23:02;;;;;;;;;;;;;;;21.35;35.71;99691.17;104476;1291;62209;-79
2024/03/25 07:25:28;;;;;;;;;;;;;;;21.36;35.86;99697.82;104088;1290;62743;-78
2024/03/25 07:27:54;;;;;;;;;;;;;;;21.37;35.81;99697.21;103565;1291;62060;-78
2024/03/25 07:30:22;;;;;;;;;;;;;;;21.38;35.72;99702.36;103525;1290;62110;-79
2024/03/25 07:32:48;;;;;;;;;;;;;;;21.38;35.78;99706.57;103600;1291;62257;-77
2024/03/25 07:35:16;;;;;;;;;;;;;;;21.39;35.71;99706.34;103652;1291;62222;-79
2024/03/25 07:37:42;;;;;;;;;;;;;;;21.39;35.67;99708.98;103712;1292;59951;-79
2024/03/25 07:40:09;;;;;;;;;;;;;;;21.40;35.67;99710.71;103914;1292;62117;-79
2024/03/25 07:42:35;;;;;;;;;;;;;;;21.40;35.70;99714.28;103712;1291;62199;-79
2024/03/25 07:45:00;;;;;;;;;;;;;;;21.40;35.66;99714.98;103614;1291;62188;-80
2024/03/25 07:47:26;;;;;;;;;;;;;;;21.41;35.72;99718.52;103830;1290;62227;-80
2024/03/25 07:49:51;;;;;;;;;;;;;;;21.41;35.58;99723.88;103872;1290;62214;-80
2024/03/25 07:52:17;;;;;;;;;;;;;;;21.41;35.62;99727.12;104106;1291;62188;-78
2024/03/25 07:54:43;;;;;;;;;;;;;;;21.40;35.72;99728.79;104170;1294;62175;-76
2024/03/25 07:57:09;;;;;;;;;;;;;;;21.39;35.75;99726.14;104268;1291;62277;-78
2024/03/25 07:59:34;;;;;;;;;;;;;;;21.36;35.57;99724.30;104288;1290;62211;-78
2024/03/25 08:02:00;;;;;;;;;;;;;;;21.33;35.80;99722.81;104396;1291;74927;-79
2024/03/25 08:04:26;;;;;;;;;;;;;;;21.30;35.63;99728.42;104110;1291;63142;-77
2024/03/25 08:06:51;;;;;;;;;;;;;;;21.27;35.75;99728.51;104178;1291;62129;-78
2024/03/25 08:09:17;;;;;;;;;;;;;;;21.27;35.58;99730.65;104331;1291;62125;-77
2024/03/25 08:11:45;;;;;;;;;;;;;;;21.29;35.76;99732.67;103277;1291;62210;-76
2024/03/25 08:14:11;;;;;;;;;;;;;;;21.30;35.70;99731.81;103306;1291;73436;-77
2024/03/25 08:16:36;;;;;;;;;;;;;;;21.33;35.62;99733.20;103190;1294;62210;-79
2024/03/25 08:19:02;;;;;;;;;;;;;;;21.34;35.69;99737.58;103620;1291;62207;-79
2024/03/25 08:21:28;;;;;;;;;;;;;;;21.35;35.78;99735.71;104333;1291;60229;-79
2024/03/25 08:23:53;;;;;;;;;;;;;;;21.36;35.69;99737.38;104041;1291;62070;-78
2024/03/25 08:26:18;;;;;;;;;;;;;;;21.37;35.81;99738.04;103941;1290;72396;-79
2024/03/25 08:28:44;;;;;;;;;;;;;;;21.38;35.70;99734.89;103808;1291;62256;-78
2024/03/25 08:31:10;;;;;;;;;;;;;;;21.39;35.65;99734.94;104034;1294;62144;-79
2024/03/25 08:33:36;;;;;;;;;;;;;;;21.41;35.75;99737.85;103907;1291;62194;-78
2024/03/25 08:36:02;;;;;;;;;;;;;;;21.41;35.72;99740.34;103882;1291;62144;-79
2024/03/25 08:38:28;;;;;;;;;;;;;;;21.42;35.71;99742.79;104042;1291;62179;-80
2024/03/25 08:40:53;;;;;;;;;;;;;;;21.42;35.70;99745.58;104144;1291;74093;-79
2024/03/25 08:43:19;;;;;;;;;;;;;;;21.44;35.78;99742.77;104208;1290;62091;-80
2024/03/25 08:45:46;;;;;;;;;;;;;;;21.45;35.67;99740.89;104033;1291;61982;-80
2024/03/25 08:48:12;;;;;;;;;;;;;;;21.45;35.81;99740.67;103775;1291;61939;-79
2024/03/25 08:50:37;;;;;;;;;;;;;;;21.46;35.96;99741.34;104229;1295;62205;-77
2024/03/25 08:53:03;;;;;;;;;;;;;;;21.47;35.79;99740.52;103889;1290;62180;-80
2024/03/25 08:55:29;;;;;;;;;;;;;;;21.48;35.89;99744.70;104151;1295;62205;-79
2024/03/25 08:57:54;;;;;;;;;;;;;;;21.49;36.01;99743.25;104021;1291;62115;-78
2024/03/25 09:00:20;;;;;;;;;;;;;;;21.49;36.26;99745.58;104265;1291;61310;-78
2024/03/25 09:02:46;;;;;;;;;;;;;;;21.49;36.35;99747.69;104067;1291;60370;-78
2024/03/25 09:05:13;;;;;;;;;;;;;;;21.51;36.68;99746.25;103817;1291;62010;-79
2024/03/25 09:07:39;;;;;;;;;;;;;;;21.55;36.96;99743.20;103910;1291;62148;-79
2024/03/25 09:12:49;;;;;;;;;;;;;;;21.62;37.50;99744.41;104412;1291;75147;-81
2024/03/25 09:15:14;;;;;;;;;;;;;;;21.64;37.62;99744.59;103925;1291;62166;-81
2024/03/25 09:17:40;;;;;;;;;;;;;;;21.64;37.36;99742.45;104090;1292;62240;-79
2024/03/25 09:20:16;;;;;;;;;;;;;;;21.63;37.47;99743.25;104071;1291;62207;-80
2024/03/25 09:22:45;;;;;;;;;;;;;;;21.63;37.33;99742.57;104115;1292;74131;-79
2024/03/25 09:25:10;;;;;;;;;;;;;;;21.62;37.30;99737.42;103943;1294;62216;-80
2024/03/25 09:27:36;;;;;;;;;;;;;;;21.62;37.29;99736.95;104008;1291;60438;-79
2024/03/25 09:30:03;;;;;;;;;;;;;;;21.61;37.33;99739.65;103878;1291;62104;-80
2024/03/25 09:32:30;;;;;;;;;;;;;;;21.61;37.18;99744.52;103950;1291;62163;-79
2024/03/25 09:34:56;;;;;;;;;;;;;;;21.60;37.32;99749.60;103754;1291;62176;-80
2024/03/25 09:37:22;;;;;;;;;;;;;;;21.60;37.41;99753.19;103861;1291;62118;-80
2024/03/25 09:39:47;;;;;;;;;;;;;;;21.60;37.37;99751.75;103945;1291;63352;-81
2024/03/25 09:42:14;;;;;;;;;;;;;;;21.60;37.40;99752.13;104233;1291;61316;-79
2024/03/25 09:44:39;;;;;;;;;;;;;;;21.59;37.35;99750.90;104382;1291;62131;-81
2024/03/25 09:47:05;;;;;;;;;;;;;;;21.58;37.48;99748.73;104610;1295;60921;-79
2024/03/25 09:49:31;;;;;;;;;;;;;;;21.53;37.58;99747.33;104603;1291;60231;-79
2024/03/25 09:51:56;;;;;;;;;;;;;;;21.49;37.57;99748.57;104149;1290;62002;-81
2024/03/25 09:54:22;;;;;;;;;;;;;;;21.45;37.55;99745.91;104371;1295;61883;-81
2024/03/25 09:56:48;;;;;;;;;;;;;;;21.39;37.64;99743.22;104754;1294;60525;-80
2024/03/25 09:59:13;;;;;;;;;;;;;;;21.36;37.77;99751.73;104726;1291;62098;-80
2024/03/25 10:01:39;;;;;;;;;;;;;;;21.36;38.01;99752.25;104856;1292;60511;-80
2024/03/25 10:04:04;;;;;;;;;;;;;;;21.35;38.00;99757.50;104757;1294;71678;-80
2024/03/25 10:06:30;;;;;;;;;;;;;;;21.30;37.89;99757.26;104947;1295;60555;-82
2024/03/25 10:08:57;;;;;;;;;;;;;;;21.20;37.78;99757.03;105043;1290;62111;-80
2024/03/25 10:11:22;;;;;;;;;;;;;;;21.11;37.84;99756.19;104940;1291;60850;-79
2024/03/25 10:13:48;;;;;;;;;;;;;;;21.07;37.67;99758.16;104806;1289;62192;-79
2024/03/25 10:16:13;;;;;;;;;;;;;;;21.05;37.67;99758.13;104490;1294;62003;-79
2024/03/25 10:18:40;;;;;;;;;;;;;;;21.04;37.60;99755.18;104557;1294;62175;-81
2024/03/25 10:21:09;;;;;;;;;;;;;;;21.04;37.60;99752.51;104351;1291;61981;-78
2024/03/25 10:23:40;;;;;;;;;;;;;;;21.05;37.49;99755.31;104202;1291;62009;-79
2024/03/25 10:26:05;;;;;;;;;;;;;;;21.06;37.62;99753.84;104113;1295;73646;-79
2024/03/25 10:28:31;;;;;;;;;;;;;;;21.05;37.55;99745.79;103863;1296;62203;-80
2024/03/25 10:31:03;;;;;;;;;;;;;;;21.06;37.59;99745.90;104322;1291;62057;-78
2024/03/25 10:33:29;;;;;;;;;;;;;;;21.08;37.45;99747.86;104146;1294;62163;-80
2024/03/25 10:35:54;;;;;;;;;;;;;;;21.11;37.62;99744.80;104458;1291;64383;-79
2024/03/25 10:38:20;;;;;;;;;;;;;;;21.13;37.46;99741.36;104067;1291;62360;-79
2024/03/25 10:40:45;;;;;;;;;;;;;;;21.16;37.57;99734.86;104100;1291;60878;-81
2024/03/25 10:43:13;;;;;;;;;;;;;;;21.18;37.59;99736.08;104063;1292;64429;-78
2024/03/25 10:45:40;;;;;;;;;;;;;;;21.20;37.54;99732.54;103777;1291;62171;-79
2024/03/25 10:48:17;;;;;;;;;;;;;;;21.20;37.63;99727.88;103980;1292;73712;-78
2024/03/25 10:50:43;;;;;;;;;;;;;;;21.19;37.71;99730.62;104097;1291;74327;-80
2024/03/25 10:53:10;;;;;;;;;;;;;;;21.19;37.74;99725.63;103926;1291;62121;-78
2024/03/25 10:55:36;;;;;;;;;;;;;;;21.19;37.80;99718.16;104001;1290;62088;-81
2024/03/25 10:58:02;;;;;;;;;;;;;;;21.17;37.74;99721.92;104754;1291;62217;-80
2024/03/25 11:00:28;;;;;;;;;;;;;;;21.13;37.74;99715.81;105710;1291;60110;-81
2024/03/25 11:02:54;;;;;;;;;;;;;;;21.10;37.77;99709.66;104523;1291;62101;-81
2024/03/25 11:05:19;;;;;;;;;;;;;;;21.01;37.60;99714.52;104839;1291;62251;-78
2024/03/25 11:07:46;;;;;;;;;;;;;;;20.93;37.71;99715.40;104251;1291;62139;-79
2024/03/25 11:10:11;;;;;;;;;;;;;;;20.92;37.70;99713.34;103969;1291;62180;-78
2024/03/25 11:12:41;;;;;;;;;;;;;;;20.96;37.84;99716.27;103958;1291;77583;-79
2024/03/25 11:15:09;;;;;;;;;;;;;;;21.00;37.80;99713.04;104499;1291;62203;-79
2024/03/25 11:17:35;;;;;;;;;;;;;;;21.03;37.75;99712.21;104568;1294;62114;-80
2024/03/25 11:20:11;;;;;;;;;;;;;;;21.04;37.60;99715.69;104124;1291;62583;-80
2024/03/25 11:22:37;;;;;;;;;;;;;;;21.05;37.76;99708.81;104266;1290;75101;-80
2024/03/25 11:25:09;;;;;;;;;;;;;;;21.05;37.80;99702.40;104610;1291;61166;-79
2024/03/25 11:27:36;;;;;;;;;;;;;;;21.05;37.77;99698.94;104344;1291;61903;-81
2024/03/25 11:30:02;;;;;;;;;;;;;;;21.06;37.59;99700.29;103987;1294;73580;-80
2024/03/25 11:32:28;;;;;;;;;;;;;;;21.06;37.48;99701.36;103996;1292;62198;-80
2024/03/25 11:34:53;;;;;;;;;;;;;;;21.05;37.52;99698.79;103894;1292;62195;-80
2024/03/25 11:37:19;;;;;;;;;;;;;;;21.04;37.33;99699.07;104184;1291;62135;-80
2024/03/25 11:39:44;;;;;;;;;;;;;;;21.02;37.26;99701.71;104237;1291;62107;-84
2024/03/25 11:42:10;;;;;;;;;;;;;;;21.01;37.36;99700.94;104255;1291;62191;-79
2024/03/25 11:44:40;;;;;;;;;;;;;;;21.01;37.41;99697.02;104190;1290;62195;-80
2024/03/25 11:47:07;;;;;;;;;;;;;;;21.01;37.49;99700.02;104234;1290;61952;-79
2024/03/25 11:49:33;;;;;;;;;;;;;;;21.02;37.48;99697.39;104301;1292;62007;-81
2024/03/25 11:51:59;;;;;;;;;;;;;;;21.04;37.52;99694.91;104416;1290;62193;-81
2024/03/25 11:54:27;;;;;;;;;;;;;;;21.06;37.60;99696.16;104212;1294;62223;-80
2024/03/25 11:56:52;;;;;;;;;;;;;;;21.08;37.71;99697.64;104361;1292;62131;-78
2024/03/25 11:59:18;;;;;;;;;;;;;;;21.09;37.66;99701.32;104380;1291;60054;-79
2024/03/25 12:01:43;;;;;;;;;;;;;;;21.09;37.83;99700.59;104295;1291;62200;-79
2024/03/25 12:04:12;;;;;;;;;;;;;;;21.06;38.04;99704.98;104431;1292;62077;-79
2024/03/25 12:06:38;;;;;;;;;;;;;;;21.03;37.82;99707.92;105895;1291;60795;-79
2024/03/25 12:11:48;;;;;;;;;;;;;;;20.94;37.94;99701.38;105918;1291;72486;-80
2024/03/25 12:14:14;;;;;;;;;;;;;;;20.95;38.08;99704.32;105937;1291;59332;-79
2024/03/25 12:16:40;;;;;;;;;;;;;;;20.95;37.89;99702.69;105852;1292;59984;-80
2024/03/25 12:19:05;;;;;;;;;;;;;;;20.95;37.77;99700.55;105852;1292;60350;-80
2024/03/25 12:21:31;;;;;;;;;;;;;;;20.93;37.78;99693.35;105902;1291;60228;-80
2024/03/25 12:23:58;;;;;;;;;;;;;;;20.93;37.94;99687.48;105894;1294;72902;-80
2024/03/25 12:26:24;;;;;;;;;;;;;;;20.95;37.77;99682.17;105826;1291;75096;-80
2024/03/25 12:28:49;;;;;;;;;;;;;;;20.96;37.75;99681.54;105852;1291;59955;-79
2024/03/25 12:31:16;;;;;;;;;;;;;;;20.98;37.76;99674.92;105966;1291;60497;-79
2024/03/25 12:33:42;;;;;;;;;;;;;;;20.99;37.78;99674.45;105951;1291;60046;-80
2024/03/25 12:36:08;;;;;;;;;;;;;;;20.99;37.85;99675.71;105921;1292;60289;-81